Time;durP1;ratioP1;P1;durP2;ratioP2;P2;SDS_P1;SDS_P2;PMS_P1;PMS_P2;Temp;Humidity;BMP_temperature;BMP_pressure;BME280_temperature;BME280_humidity;BME280_pressure;Samples;Min_cycle;Max_cycle;Signal;HPM_P1;HPM_P2
2023/08/29 00:00:14;;;;;;;;;;;;;;;26.51;37.83;99925.16;5073027;28;20356;-66
2023/08/29 00:02:43;;;;;;;;;;;;;;;26.55;37.79;99915.94;5072848;28;19917;-66
2023/08/29 00:05:09;;;;;;;;;;;;;;;26.59;37.41;99914.16;5092975;28;19931;-66
2023/08/29 00:07:34;;;;;;;;;;;;;;;26.62;37.47;99905.31;5093239;28;19916;-66
2023/08/29 00:10:00;;;;;;;;;;;;;;;26.60;37.80;99907.56;5093109;28;19912;-66
2023/08/29 00:12:25;;;;;;;;;;;;;;;26.56;37.75;99903.81;5093067;28;19912;-66
2023/08/29 00:14:50;;;;;;;;;;;;;;;26.62;37.71;99896.25;5092456;28;20038;-66
2023/08/29 00:17:16;;;;;;;;;;;;;;;26.61;37.68;99900.94;5093373;28;19912;-66
2023/08/29 00:19:41;;;;;;;;;;;;;;;26.64;37.65;99905.00;5074831;28;20258;-66
2023/08/29 00:22:07;;;;;;;;;;;;;;;26.64;37.68;99902.25;5061433;28;19920;-66
2023/08/29 00:24:32;;;;;;;;;;;;;;;26.64;37.91;99905.00;5067428;28;19924;-65
2023/08/29 00:26:57;;;;;;;;;;;;;;;26.61;37.70;99903.69;5073004;28;19913;-66
2023/08/29 00:29:22;;;;;;;;;;;;;;;26.60;37.53;99896.56;5072749;28;19924;-65
2023/08/29 00:31:48;;;;;;;;;;;;;;;26.58;37.91;99896.03;5072744;28;19912;-67
2023/08/29 00:34:13;;;;;;;;;;;;;;;26.58;37.96;99901.53;5072727;28;19913;-66
2023/08/29 00:36:39;;;;;;;;;;;;;;;26.59;38.00;99894.09;5072643;28;20024;-65
2023/08/29 00:39:04;;;;;;;;;;;;;;;26.56;38.00;99900.22;5072623;28;19916;-66
2023/08/29 00:41:30;;;;;;;;;;;;;;;26.56;37.85;99897.47;5072451;28;19920;-66
2023/08/29 00:43:56;;;;;;;;;;;;;;;26.55;37.71;99899.41;5072467;28;20411;-66
2023/08/29 00:46:22;;;;;;;;;;;;;;;26.51;38.00;99897.59;5072415;28;20010;-66
2023/08/29 00:48:48;;;;;;;;;;;;;;;26.50;38.33;99891.28;5072414;28;19912;-67
2023/08/29 00:51:13;;;;;;;;;;;;;;;26.54;38.21;99892.28;5072321;28;19917;-65
2023/08/29 00:53:38;;;;;;;;;;;;;;;26.54;38.41;99894.22;5072446;28;19916;-67
2023/08/29 00:56:05;;;;;;;;;;;;;;;26.57;37.98;99888.88;5072834;28;20257;-65
2023/08/29 00:58:31;;;;;;;;;;;;;;;26.59;38.22;99888.56;5076081;28;19912;-66
2023/08/29 01:00:58;;;;;;;;;;;;;;;26.59;37.93;99894.88;5092818;28;19919;-66
2023/08/29 01:03:24;;;;;;;;;;;;;;;26.58;38.10;99886.97;5073243;28;20007;-66
2023/08/29 01:05:49;;;;;;;;;;;;;;;26.62;38.03;99896.25;5072329;28;20292;-66
2023/08/29 01:08:15;;;;;;;;;;;;;;;26.60;37.94;99896.56;5072698;28;20263;-66
2023/08/29 01:10:51;;;;;;;;;;;;;;;26.57;37.94;99894.41;5072246;28;20416;-66
2023/08/29 01:13:22;;;;;;;;;;;;;;;26.54;37.92;99889.53;5072459;28;19963;-66
2023/08/29 01:15:49;;;;;;;;;;;;;;;26.51;37.83;99900.38;5072693;28;19919;-66
2023/08/29 01:18:16;;;;;;;;;;;;;;;26.52;38.01;99896.47;5072277;28;19912;-66
2023/08/29 01:20:42;;;;;;;;;;;;;;;26.54;38.10;99896.97;5071921;28;19948;-66
2023/08/29 01:23:16;;;;;;;;;;;;;;;26.52;38.10;99894.53;5053905;28;19967;-66
2023/08/29 01:25:48;;;;;;;;;;;;;;;26.50;38.22;99893.22;5072195;28;19951;-66
2023/08/29 01:28:13;;;;;;;;;;;;;;;26.49;38.06;99895.16;5076211;28;20260;-66
2023/08/29 01:30:39;;;;;;;;;;;;;;;26.49;38.15;99899.88;5075646;28;20006;-66
2023/08/29 01:33:07;;;;;;;;;;;;;;;26.53;38.12;99907.16;5076015;28;19999;-66
2023/08/29 01:35:33;;;;;;;;;;;;;;;26.48;37.87;99915.56;5075798;28;19928;-65
2023/08/29 01:37:58;;;;;;;;;;;;;;;26.50;38.08;99912.50;5075839;28;19912;-65
2023/08/29 01:40:23;;;;;;;;;;;;;;;26.50;37.85;99909.75;5075599;28;19912;-64
2023/08/29 01:42:49;;;;;;;;;;;;;;;26.53;37.91;99907.16;5075190;28;19932;-65
2023/08/29 01:45:14;;;;;;;;;;;;;;;26.52;38.00;99907.47;5075609;28;20262;-66
2023/08/29 01:47:42;;;;;;;;;;;;;;;26.51;37.89;99905.88;5075384;28;19920;-65
2023/08/29 01:50:09;;;;;;;;;;;;;;;26.54;37.95;99899.72;5075516;28;19918;-65
2023/08/29 01:52:34;;;;;;;;;;;;;;;26.56;37.68;99902.97;5075453;28;20027;-65
2023/08/29 01:55:00;;;;;;;;;;;;;;;26.56;37.71;99906.56;5074261;28;20438;-66
2023/08/29 01:57:27;;;;;;;;;;;;;;;26.56;37.78;99897.47;5075471;28;19912;-66
2023/08/29 01:59:52;;;;;;;;;;;;;;;26.49;37.60;99899.88;5075323;28;19913;-66
2023/08/29 02:02:18;;;;;;;;;;;;;;;26.45;38.13;99905.19;5075094;28;20408;-66
2023/08/29 02:04:44;;;;;;;;;;;;;;;26.41;37.89;99907.75;5075127;28;19971;-66
2023/08/29 02:07:09;;;;;;;;;;;;;;;26.39;37.89;99903.66;5057146;28;19959;-66
2023/08/29 02:09:34;;;;;;;;;;;;;;;26.35;37.95;99911.75;5075032;28;19913;-67
2023/08/29 02:12:00;;;;;;;;;;;;;;;26.33;37.96;99914.00;5075094;28;19958;-67
2023/08/29 02:14:25;;;;;;;;;;;;;;;26.31;37.91;99919.00;5075144;28;19939;-66
2023/08/29 02:16:50;;;;;;;;;;;;;;;26.29;38.14;99923.22;5074994;28;19948;-67
2023/08/29 02:19:15;;;;;;;;;;;;;;;26.28;38.08;99927.91;5074839;28;19912;-66
2023/08/29 02:21:41;;;;;;;;;;;;;;;26.32;37.98;99928.91;5075006;28;19920;-66
2023/08/29 02:24:06;;;;;;;;;;;;;;;26.29;38.14;99924.00;5075232;28;19912;-67
2023/08/29 02:26:31;;;;;;;;;;;;;;;26.23;37.74;99926.06;5074925;28;19920;-66
2023/08/29 02:28:57;;;;;;;;;;;;;;;26.30;38.06;99914.66;5074901;28;20276;-66
2023/08/29 02:31:22;;;;;;;;;;;;;;;26.30;37.96;99920.16;5074879;28;19924;-66
2023/08/29 02:33:47;;;;;;;;;;;;;;;26.29;37.87;99910.25;5075077;28;20307;-66
2023/08/29 02:36:13;;;;;;;;;;;;;;;26.21;38.07;99908.25;5074753;28;19928;-66
2023/08/29 02:38:38;;;;;;;;;;;;;;;26.22;37.89;99910.66;5073656;28;19922;-64
2023/08/29 02:41:05;;;;;;;;;;;;;;;26.19;37.91;99914.06;5074584;28;19920;-65
2023/08/29 02:43:30;;;;;;;;;;;;;;;26.21;38.03;99911.81;5074062;28;19921;-65
2023/08/29 02:45:56;;;;;;;;;;;;;;;26.24;37.88;99910.38;5072788;28;19917;-66
2023/08/29 02:48:22;;;;;;;;;;;;;;;26.26;38.04;99911.69;5074525;28;20480;-66
2023/08/29 02:50:50;;;;;;;;;;;;;;;26.27;38.11;99915.25;5074104;28;19943;-66
2023/08/29 02:53:18;;;;;;;;;;;;;;;26.25;38.22;99921.06;5074392;28;19962;-66
2023/08/29 02:55:43;;;;;;;;;;;;;;;26.25;38.22;99921.06;5073911;28;20407;-66
2023/08/29 02:58:09;;;;;;;;;;;;;;;26.23;37.80;99926.06;5074327;28;19963;-66
2023/08/29 03:00:35;;;;;;;;;;;;;;;26.25;38.19;99920.25;5073999;28;20468;-66
2023/08/29 03:03:00;;;;;;;;;;;;;;;26.24;38.02;99927.72;5073378;28;19955;-66
2023/08/29 03:05:25;;;;;;;;;;;;;;;26.20;38.29;99932.19;5055773;28;19920;-66
2023/08/29 03:07:51;;;;;;;;;;;;;;;26.27;38.36;99931.78;5074026;28;19912;-66
2023/08/29 03:10:17;;;;;;;;;;;;;;;26.34;38.12;99932.16;5073822;28;19912;-65
2023/08/29 03:12:42;;;;;;;;;;;;;;;26.38;38.16;99932.34;5055769;28;19959;-65
2023/08/29 03:15:08;;;;;;;;;;;;;;;26.36;37.56;99924.41;5073705;28;19956;-65
2023/08/29 03:17:34;;;;;;;;;;;;;;;26.35;37.81;99928.25;5073600;28;20392;-65
2023/08/29 03:20:00;;;;;;;;;;;;;;;26.35;37.69;99931.00;5056003;28;19921;-65
2023/08/29 03:22:25;;;;;;;;;;;;;;;26.31;37.83;99930.03;5073768;28;20455;-64
2023/08/29 03:24:51;;;;;;;;;;;;;;;26.31;37.75;99930.03;5073202;28;19955;-65
2023/08/29 03:27:16;;;;;;;;;;;;;;;26.25;37.61;99932.06;5073514;28;19959;-65
2023/08/29 03:29:41;;;;;;;;;;;;;;;26.20;37.83;99934.94;5073635;28;20377;-65
2023/08/29 03:32:06;;;;;;;;;;;;;;;26.20;37.93;99934.16;5073643;28;19962;-65
2023/08/29 03:34:32;;;;;;;;;;;;;;;26.19;37.82;99933.34;5073792;28;20022;-66
2023/08/29 03:36:57;;;;;;;;;;;;;;;26.25;37.73;99934.03;5073844;28;19913;-65
2023/08/29 03:39:22;;;;;;;;;;;;;;;26.32;37.69;99936.31;5073415;28;20400;-65
2023/08/29 03:41:48;;;;;;;;;;;;;;;26.32;37.68;99934.41;5073397;28;20433;-66
2023/08/29 03:44:13;;;;;;;;;;;;;;;26.25;37.57;99934.84;5073640;28;19921;-66
2023/08/29 03:46:38;;;;;;;;;;;;;;;26.26;37.77;99936.47;5073255;28;19993;-66
2023/08/29 03:49:04;;;;;;;;;;;;;;;26.26;37.74;99930.13;5073232;28;19912;-66
2023/08/29 03:51:29;;;;;;;;;;;;;;;26.30;37.70;99922.06;5073271;28;20350;-66
2023/08/29 03:53:55;;;;;;;;;;;;;;;26.22;37.68;99924.44;5072524;28;19913;-65
2023/08/29 03:56:20;;;;;;;;;;;;;;;26.23;37.38;99922.53;5073373;28;20038;-64
2023/08/29 03:58:46;;;;;;;;;;;;;;;26.17;37.30;99926.50;5073128;28;19962;-65
2023/08/29 04:01:11;;;;;;;;;;;;;;;26.19;37.70;99918.78;5072917;28;19935;-65
2023/08/29 04:03:37;;;;;;;;;;;;;;;26.24;37.43;99935.13;5072853;28;20270;-65
2023/08/29 04:06:03;;;;;;;;;;;;;;;26.20;37.29;99936.91;5073337;28;20265;-65
2023/08/29 04:08:28;;;;;;;;;;;;;;;26.18;37.49;99939.16;5072989;28;20311;-65
2023/08/29 04:10:53;;;;;;;;;;;;;;;26.19;37.45;99935.28;5073209;28;19932;-66
2023/08/29 04:13:19;;;;;;;;;;;;;;;26.22;37.46;99934.63;5072823;28;19948;-65
2023/08/29 04:15:44;;;;;;;;;;;;;;;26.17;37.22;99943.00;5073083;28;19955;-65
2023/08/29 04:18:09;;;;;;;;;;;;;;;26.18;37.73;99936.41;5072836;28;19917;-66
2023/08/29 04:20:35;;;;;;;;;;;;;;;26.18;37.41;99941.91;5072976;28;19912;-66
2023/08/29 04:23:03;;;;;;;;;;;;;;;26.16;37.50;99936.69;5072408;28;20305;-65
2023/08/29 04:25:28;;;;;;;;;;;;;;;26.10;37.54;99934.41;5054915;28;19913;-65
2023/08/29 04:27:54;;;;;;;;;;;;;;;26.10;37.44;99939.91;5073071;28;20394;-65
2023/08/29 04:30:20;;;;;;;;;;;;;;;26.06;37.40;99945.22;5072539;28;20411;-65
2023/08/29 04:32:47;;;;;;;;;;;;;;;26.10;37.34;99948.97;5071908;28;19917;-65
2023/08/29 04:35:12;;;;;;;;;;;;;;;26.11;37.47;99944.25;5072812;28;19920;-65
2023/08/29 04:37:37;;;;;;;;;;;;;;;26.11;37.58;99945.06;5072646;28;20320;-65
2023/08/29 04:40:10;;;;;;;;;;;;;;;26.08;37.31;99946.50;5072633;28;19916;-65
2023/08/29 04:42:37;;;;;;;;;;;;;;;26.15;37.37;99942.50;5072365;28;19962;-65
2023/08/29 04:45:04;;;;;;;;;;;;;;;26.18;37.41;99937.19;5072752;28;20312;-65
2023/08/29 04:47:32;;;;;;;;;;;;;;;26.14;37.28;99944.47;5072591;28;19912;-65
2023/08/29 04:49:58;;;;;;;;;;;;;;;26.13;37.18;99942.00;5072905;28;19913;-66
2023/08/29 04:52:26;;;;;;;;;;;;;;;26.08;37.55;99938.25;5072724;28;19912;-65
2023/08/29 04:54:51;;;;;;;;;;;;;;;26.06;37.40;99936.94;5071629;28;20392;-65
2023/08/29 04:57:16;;;;;;;;;;;;;;;26.04;37.40;99947.47;5072505;28;19912;-66
2023/08/29 04:59:41;;;;;;;;;;;;;;;26.06;37.57;99943.25;5072422;28;19920;-65
2023/08/29 05:02:08;;;;;;;;;;;;;;;26.04;37.49;99941.97;5075561;28;20002;-65
2023/08/29 05:04:33;;;;;;;;;;;;;;;26.14;37.45;99940.91;5076131;28;19929;-65
2023/08/29 05:06:59;;;;;;;;;;;;;;;26.20;37.24;99947.91;5076517;28;19919;-65
2023/08/29 05:09:24;;;;;;;;;;;;;;;26.25;37.51;99945.03;5076114;28;19912;-66
2023/08/29 05:11:50;;;;;;;;;;;;;;;26.26;37.10;99947.50;5076410;28;20332;-65
2023/08/29 05:14:15;;;;;;;;;;;;;;;26.27;37.11;99940.03;5075963;28;20267;-67
2023/08/29 05:16:40;;;;;;;;;;;;;;;26.26;37.12;99953.00;5075988;28;19919;-65
2023/08/29 05:19:07;;;;;;;;;;;;;;;26.19;37.17;99957.31;5075669;28;19916;-66
2023/08/29 05:21:33;;;;;;;;;;;;;;;26.16;36.77;99955.97;5075666;28;19929;-65
2023/08/29 05:23:58;;;;;;;;;;;;;;;26.21;37.02;99957.81;5076154;28;19917;-65
2023/08/29 05:26:24;;;;;;;;;;;;;;;26.30;37.09;99958.69;5075952;28;19912;-66
2023/08/29 05:28:49;;;;;;;;;;;;;;;26.27;37.12;99962.84;5075976;28;19916;-66
2023/08/29 05:31:15;;;;;;;;;;;;;;;26.25;37.02;99964.31;5075703;28;19913;-66
2023/08/29 05:33:40;;;;;;;;;;;;;;;26.23;36.97;99966.56;5075846;28;19924;-66
2023/08/29 05:36:05;;;;;;;;;;;;;;;26.22;36.86;99959.41;5075936;28;19957;-66
2023/08/29 05:38:31;;;;;;;;;;;;;;;26.21;36.90;99960.56;5075764;28;19924;-66
2023/08/29 05:40:56;;;;;;;;;;;;;;;26.31;37.05;99965.00;5075603;28;19913;-66
2023/08/29 05:43:21;;;;;;;;;;;;;;;26.21;37.02;99964.13;5075462;28;19924;-66
2023/08/29 05:45:46;;;;;;;;;;;;;;;26.19;36.81;99965.56;5075669;28;19935;-66
2023/08/29 05:48:12;;;;;;;;;;;;;;;26.19;37.18;99971.06;5075927;28;19919;-65
2023/08/29 05:50:40;;;;;;;;;;;;;;;26.14;36.93;99974.72;5075505;28;19919;-66
2023/08/29 05:53:06;;;;;;;;;;;;;;;26.08;37.09;99970.47;5075496;28;20003;-66
2023/08/29 05:55:32;;;;;;;;;;;;;;;26.12;37.32;99978.94;5074900;28;20007;-65
2023/08/29 05:57:57;;;;;;;;;;;;;;;26.13;36.95;99986.06;5075426;28;19924;-66
2023/08/29 06:00:23;;;;;;;;;;;;;;;26.07;37.35;99986.16;5075276;28;19923;-66
2023/08/29 06:02:51;;;;;;;;;;;;;;;26.13;37.06;99981.34;5074877;28;19924;-66
2023/08/29 06:05:17;;;;;;;;;;;;;;;26.12;37.09;99982.50;5075216;28;19916;-66
2023/08/29 06:07:46;;;;;;;;;;;;;;;26.13;37.09;99986.06;5074802;28;19916;-65
2023/08/29 06:10:11;;;;;;;;;;;;;;;26.17;37.11;99987.06;5074925;28;19961;-65
2023/08/29 06:12:37;;;;;;;;;;;;;;;26.16;37.08;99986.25;5074922;28;19912;-66
2023/08/29 06:15:02;;;;;;;;;;;;;;;26.17;36.93;99985.13;5074841;28;20078;-66
2023/08/29 06:17:27;;;;;;;;;;;;;;;26.22;37.22;99989.69;5074984;28;19917;-66
2023/08/29 06:19:53;;;;;;;;;;;;;;;26.23;36.86;99983.06;5075254;28;20129;-66
2023/08/29 06:22:19;;;;;;;;;;;;;;;26.15;37.09;99975.53;5074663;28;19916;-66
2023/08/29 06:24:45;;;;;;;;;;;;;;;26.21;36.95;99983.38;5075160;28;20011;-66
2023/08/29 06:27:10;;;;;;;;;;;;;;;26.25;37.16;99995.41;5075115;28;19958;-65
2023/08/29 06:29:35;;;;;;;;;;;;;;;26.28;37.03;99993.97;5075013;28;19916;-64
2023/08/29 06:32:01;;;;;;;;;;;;;;;26.29;37.43;100000.28;5074858;28;20377;-64
2023/08/29 06:34:26;;;;;;;;;;;;;;;26.28;36.82;99993.97;5075111;28;19916;-64
2023/08/29 06:36:51;;;;;;;;;;;;;;;26.29;37.00;99992.03;5074837;28;20023;-64
2023/08/29 06:39:17;;;;;;;;;;;;;;;26.22;37.47;99998.75;5074739;28;19952;-64
2023/08/29 06:41:43;;;;;;;;;;;;;;;26.26;37.13;99996.19;5074521;28;19999;-64
2023/08/29 06:44:09;;;;;;;;;;;;;;;26.25;37.16;99998.16;5074568;28;19950;-63
2023/08/29 06:46:34;;;;;;;;;;;;;;;26.29;37.48;99990.09;5074888;28;19913;-64
2023/08/29 06:48:59;;;;;;;;;;;;;;;26.37;37.55;99994.84;5074808;28;20361;-64
2023/08/29 06:51:25;;;;;;;;;;;;;;;26.38;37.25;100003.94;5074642;28;20376;-64
2023/08/29 06:53:50;;;;;;;;;;;;;;;26.40;37.07;100002.50;5074008;28;19919;-64
2023/08/29 06:56:15;;;;;;;;;;;;;;;26.45;37.37;99996.88;5074396;28;19919;-65
2023/08/29 06:58:41;;;;;;;;;;;;;;;26.52;37.25;99992.84;5074218;28;19944;-65
2023/08/29 07:01:06;;;;;;;;;;;;;;;26.58;37.08;99992.44;5074088;28;20002;-65
2023/08/29 07:03:31;;;;;;;;;;;;;;;26.65;37.13;99997.50;5073583;28;19920;-65
2023/08/29 07:05:57;;;;;;;;;;;;;;;26.72;37.05;99986.88;5074329;28;20364;-65
2023/08/29 07:08:23;;;;;;;;;;;;;;;26.77;37.16;99985.94;5073731;28;20645;-65
2023/08/29 07:10:48;;;;;;;;;;;;;;;26.85;37.27;99985.97;5073999;28;19912;-65
2023/08/29 07:13:13;;;;;;;;;;;;;;;26.94;36.96;99997.06;5073867;28;20004;-64
2023/08/29 07:15:39;;;;;;;;;;;;;;;27.05;36.87;99992.09;5074084;28;19922;-66
2023/08/29 07:18:05;;;;;;;;;;;;;;;27.13;37.17;99999.59;5073808;28;19962;-65
2023/08/29 07:20:31;;;;;;;;;;;;;;;27.18;36.81;100007.75;5073568;28;19935;-67
2023/08/29 07:22:56;;;;;;;;;;;;;;;27.23;36.76;100004.84;5073125;28;20349;-68
2023/08/29 07:25:35;;;;;;;;;;;;;;;27.33;36.62;99998.28;5056338;28;20007;-66
2023/08/29 07:28:00;;;;;;;;;;;;;;;27.45;36.66;100002.38;5072770;28;19913;-66
2023/08/29 07:30:26;;;;;;;;;;;;;;;27.57;36.77;99992.38;5073861;28;20369;-67
2023/08/29 07:32:51;;;;;;;;;;;;;;;27.74;36.75;99993.56;5073469;28;19970;-66
2023/08/29 07:35:17;;;;;;;;;;;;;;;27.80;36.47;99998.63;5073736;28;19918;-67
2023/08/29 07:37:42;;;;;;;;;;;;;;;27.87;35.85;99994.56;5073523;28;19913;-68
2023/08/29 07:40:08;;;;;;;;;;;;;;;27.88;36.23;99985.97;5073455;28;20002;-66
2023/08/29 07:42:34;;;;;;;;;;;;;;;27.91;36.24;99981.78;5073364;28;19947;-68
2023/08/29 07:44:59;;;;;;;;;;;;;;;27.91;35.91;99990.06;5072269;28;19935;-68
2023/08/29 07:47:25;;;;;;;;;;;;;;;27.87;36.25;99994.56;5073398;28;19919;-68
2023/08/29 07:49:50;;;;;;;;;;;;;;;27.85;36.00;99994.06;5073087;28;19919;-68
2023/08/29 07:52:15;;;;;;;;;;;;;;;27.85;36.36;99996.84;5073415;28;19917;-68
2023/08/29 07:54:41;;;;;;;;;;;;;;;27.78;36.13;99995.34;5072408;28;20372;-67
2023/08/29 07:57:06;;;;;;;;;;;;;;;27.74;36.00;99996.31;5072899;28;19920;-68
2023/08/29 07:59:32;;;;;;;;;;;;;;;27.70;35.94;100003.63;5072918;28;19920;-67
2023/08/29 08:01:57;;;;;;;;;;;;;;;27.67;36.47;99998.72;5072546;28;19951;-67
2023/08/29 08:04:22;;;;;;;;;;;;;;;27.65;36.25;100001.78;5072621;28;19924;-67
2023/08/29 08:06:48;;;;;;;;;;;;;;;27.65;36.55;100001.78;5072533;28;19956;-67
2023/08/29 08:09:14;;;;;;;;;;;;;;;27.66;36.16;100000.69;5072970;28;20296;-66
2023/08/29 08:11:39;;;;;;;;;;;;;;;27.72;36.13;99998.59;5072337;28;19959;-67
2023/08/29 08:14:04;;;;;;;;;;;;;;;27.76;35.89;100000.38;5072446;28;20012;-67
2023/08/29 08:16:29;;;;;;;;;;;;;;;27.77;36.28;100003.97;5072442;28;19958;-66
2023/08/29 08:18:55;;;;;;;;;;;;;;;27.82;35.78;100006.56;5072442;28;20357;-67
2023/08/29 08:21:21;;;;;;;;;;;;;;;27.86;35.97;100012.25;5072590;28;19912;-67
2023/08/29 08:23:46;;;;;;;;;;;;;;;27.95;36.34;100005.66;5071174;28;20372;-67
2023/08/29 08:26:13;;;;;;;;;;;;;;;27.95;35.84;100002.06;5072778;28;19916;-67
2023/08/29 08:28:39;;;;;;;;;;;;;;;28.05;35.35;100007.28;5072347;28;19991;-66
2023/08/29 08:31:06;;;;;;;;;;;;;;;28.12;35.84;100004.03;5072577;28;20288;-67
2023/08/29 08:33:31;;;;;;;;;;;;;;;28.17;35.69;100001.13;5072608;28;20362;-67
2023/08/29 08:35:57;;;;;;;;;;;;;;;28.23;35.03;99997.09;5071622;28;19994;-67
2023/08/29 08:38:23;;;;;;;;;;;;;;;28.27;35.24;99992.53;5072560;28;20368;-67
2023/08/29 08:40:48;;;;;;;;;;;;;;;28.33;35.25;99995.94;5072787;28;19951;-66
2023/08/29 08:43:15;;;;;;;;;;;;;;;28.32;35.26;99986.03;5072665;28;19939;-68
2023/08/29 08:45:40;;;;;;;;;;;;;;;28.34;35.59;99981.00;5072387;28;20428;-68
2023/08/29 08:48:06;;;;;;;;;;;;;;;28.45;35.89;99978.72;5072449;28;20007;-68
2023/08/29 08:50:32;;;;;;;;;;;;;;;28.48;34.94;99978.06;5072393;28;19924;-68
2023/08/29 08:52:58;;;;;;;;;;;;;;;28.64;35.56;99976.47;5072245;28;19935;-68
2023/08/29 08:55:25;;;;;;;;;;;;;;;28.70;34.18;99972.38;5071398;28;19916;-68
2023/08/29 08:57:50;;;;;;;;;;;;;;;28.76;35.39;99968.31;5072176;28;19912;-68
2023/08/29 09:00:16;;;;;;;;;;;;;;;28.84;34.67;99965.84;5072004;28;19912;-68
2023/08/29 09:02:42;;;;;;;;;;;;;;;28.98;35.20;99963.69;5063836;28;19920;-68
2023/08/29 09:05:07;;;;;;;;;;;;;;;29.13;35.04;99962.34;5071859;28;20015;-68
2023/08/29 09:07:36;;;;;;;;;;;;;;;29.22;34.71;99967.88;5054201;28;20003;-68
2023/08/29 09:10:11;;;;;;;;;;;;;;;29.30;34.95;99958.72;5072287;28;19958;-68
2023/08/29 09:12:57;;;;;;;;;;;;;;;29.36;34.70;99951.84;5072443;28;20254;-67
2023/08/29 09:15:25;;;;;;;;;;;;;;;29.42;34.70;99964.38;5071853;28;20376;-67
2023/08/29 09:17:51;;;;;;;;;;;;;;;29.48;34.84;99962.25;5072221;28;19978;-68
2023/08/29 09:20:16;;;;;;;;;;;;;;;29.47;33.42;99960.59;5071965;28;20011;-67
2023/08/29 09:22:42;;;;;;;;;;;;;;;29.48;33.71;99965.81;5072200;28;20003;-68
2023/08/29 09:25:08;;;;;;;;;;;;;;;29.49;34.07;99966.59;5072205;28;20354;-68
2023/08/29 09:27:44;;;;;;;;;;;;;;;29.49;34.51;99967.44;5072143;28;19916;-68
2023/08/29 09:30:11;;;;;;;;;;;;;;;29.46;33.04;99970.88;5072289;28;20001;-68
2023/08/29 09:32:38;;;;;;;;;;;;;;;29.42;33.23;99967.16;5072114;28;20292;-68
2023/08/29 09:35:05;;;;;;;;;;;;;;;29.37;33.60;99966.53;5072168;28;19948;-68
2023/08/29 09:37:31;;;;;;;;;;;;;;;29.29;33.70;99962.63;5072242;28;19963;-68
2023/08/29 09:39:57;;;;;;;;;;;;;;;29.21;34.08;99967.06;5072070;28;19918;-68
2023/08/29 09:42:22;;;;;;;;;;;;;;;29.22;34.29;99973.41;5071008;28;19916;-68
2023/08/29 09:44:48;;;;;;;;;;;;;;;29.19;33.91;99982.38;5070702;28;19966;-68
2023/08/29 09:47:21;;;;;;;;;;;;;;;29.22;35.13;99979.75;5073641;28;20002;-68
2023/08/29 09:49:47;;;;;;;;;;;;;;;29.19;33.96;99985.94;5075441;28;20011;-68
2023/08/29 09:52:12;;;;;;;;;;;;;;;29.09;33.79;99978.78;5075413;28;19912;-68
2023/08/29 09:54:44;;;;;;;;;;;;;;;29.16;33.60;99978.31;5074797;28;19920;-68
2023/08/29 09:57:10;;;;;;;;;;;;;;;29.17;33.05;99987.44;5055541;28;20011;-68
2023/08/29 09:59:38;;;;;;;;;;;;;;;29.23;33.46;99984.13;5066179;28;20011;-68
2023/08/29 10:02:04;;;;;;;;;;;;;;;29.30;33.22;99997.47;5067716;28;19947;-67
2023/08/29 10:04:30;;;;;;;;;;;;;;;29.48;32.50;99998.22;5055093;28;20366;-68
2023/08/29 10:06:57;;;;;;;;;;;;;;;29.74;33.08;100000.88;5072748;28;19917;-68
2023/08/29 10:09:25;;;;;;;;;;;;;;;29.88;32.66;99998.69;5075414;28;20261;-68
2023/08/29 10:11:51;;;;;;;;;;;;;;;29.91;32.07;99999.94;5075022;28;20003;-67
2023/08/29 10:14:17;;;;;;;;;;;;;;;29.88;31.63;100004.22;5075033;28;19999;-68
2023/08/29 10:16:43;;;;;;;;;;;;;;;29.83;31.48;100001.63;5075348;28;19940;-68
2023/08/29 10:19:10;;;;;;;;;;;;;;;29.85;31.73;100002.09;5074937;28;20323;-68
2023/08/29 10:21:36;;;;;;;;;;;;;;;29.88;31.61;100011.69;5075211;28;19923;-69
2023/08/29 10:24:02;;;;;;;;;;;;;;;29.90;32.17;100020.47;5074594;28;19917;-68
2023/08/29 10:26:28;;;;;;;;;;;;;;;29.93;32.02;100008.72;5075602;28;19912;-68
2023/08/29 10:28:54;;;;;;;;;;;;;;;29.97;33.18;100008.88;5075348;28;20418;-68
2023/08/29 10:31:20;;;;;;;;;;;;;;;29.90;31.91;100004.69;5074764;28;19916;-68
2023/08/29 10:33:46;;;;;;;;;;;;;;;30.00;33.26;100003.47;5074717;28;20395;-67
2023/08/29 10:36:13;;;;;;;;;;;;;;;30.01;32.86;99990.44;5073483;28;19948;-67
2023/08/29 10:38:39;;;;;;;;;;;;;;;30.09;32.20;99995.91;5074630;28;19923;-67
2023/08/29 10:41:06;;;;;;;;;;;;;;;30.16;31.70;99997.34;5074577;28;19920;-68
2023/08/29 10:43:32;;;;;;;;;;;;;;;30.30;32.74;100003.41;5074338;28;19917;-68
2023/08/29 10:45:59;;;;;;;;;;;;;;;30.43;31.69;99999.59;5074730;28;19943;-68
2023/08/29 10:48:46;;;;;;;;;;;;;;;30.99;31.28;99992.88;5073614;28;19935;-68
2023/08/29 10:51:15;;;;;;;;;;;;;;;31.33;31.70;99991.66;5074461;28;19913;-68
2023/08/29 10:53:48;;;;;;;;;;;;;;;31.34;30.65;100001.63;5073999;28;20284;-68
2023/08/29 10:56:14;;;;;;;;;;;;;;;31.48;31.20;100000.50;5074492;28;19916;-68
2023/08/29 10:58:42;;;;;;;;;;;;;;;31.23;30.74;99997.66;5073584;28;19919;-68
2023/08/29 11:01:27;;;;;;;;;;;;;;;31.41;30.63;99993.53;5074242;28;19974;-68
2023/08/29 11:03:52;;;;;;;;;;;;;;;31.39;30.19;99992.25;5053956;28;19928;-68
2023/08/29 11:06:19;;;;;;;;;;;;;;;31.39;29.49;99995.00;5050195;28;19916;-68
2023/08/29 11:08:44;;;;;;;;;;;;;;;31.12;29.74;100000.06;5073949;28;19929;-69
2023/08/29 11:11:09;;;;;;;;;;;;;;;30.99;29.76;99998.44;5073863;28;19916;-68
2023/08/29 11:13:52;;;;;;;;;;;;;;;31.19;30.76;99999.53;5074234;28;19916;-68
2023/08/29 11:16:17;;;;;;;;;;;;;;;31.18;31.39;99997.88;5073940;28;19920;-68
2023/08/29 11:18:43;;;;;;;;;;;;;;;31.34;29.13;99989.72;5073780;28;20503;-68
2023/08/29 11:21:12;;;;;;;;;;;;;;;31.51;31.02;100003.38;5073831;28;19912;-68
2023/08/29 11:23:41;;;;;;;;;;;;;;;31.86;30.63;100004.91;5073563;28;19971;-68
2023/08/29 11:26:08;;;;;;;;;;;;;;;32.11;30.34;100008.44;5073495;28;20011;-68
2023/08/29 11:28:37;;;;;;;;;;;;;;;32.36;29.61;100012.78;5073215;28;19927;-68
2023/08/29 11:31:04;;;;;;;;;;;;;;;32.48;29.57;100011.94;5073593;28;20254;-68
2023/08/29 11:33:30;;;;;;;;;;;;;;;32.67;29.91;100016.06;5073272;28;19977;-68
2023/08/29 11:35:55;;;;;;;;;;;;;;;32.71;28.45;100017.00;5073398;28;20370;-68
2023/08/29 11:38:25;;;;;;;;;;;;;;;32.63;27.72;100017.94;5073820;28;19912;-68
2023/08/29 11:40:50;;;;;;;;;;;;;;;32.89;29.07;100021.03;5073448;28;19912;-68
2023/08/29 11:43:16;;;;;;;;;;;;;;;32.78;29.18;100017.16;5072966;28;19920;-68
2023/08/29 11:45:41;;;;;;;;;;;;;;;32.99;29.17;100009.41;5072678;28;19916;-68
2023/08/29 11:48:07;;;;;;;;;;;;;;;33.16;28.26;100013.06;5073137;28;19913;-68
2023/08/29 11:50:32;;;;;;;;;;;;;;;33.33;28.04;100014.69;5073081;28;19947;-68
2023/08/29 11:53:00;;;;;;;;;;;;;;;33.46;28.04;100007.03;5072858;28;19916;-68
2023/08/29 11:55:26;;;;;;;;;;;;;;;33.62;28.44;100012.59;5072511;28;20293;-67
2023/08/29 11:57:52;;;;;;;;;;;;;;;33.54;26.48;100017.19;5073339;28;19913;-67
2023/08/29 12:00:18;;;;;;;;;;;;;;;33.30;28.20;100012.59;5073015;28;19913;-68
2023/08/29 12:02:44;;;;;;;;;;;;;;;33.18;30.10;100011.53;5054759;28;20011;-67
2023/08/29 12:05:10;;;;;;;;;;;;;;;32.84;29.10;100012.16;5072777;28;20007;-68
2023/08/29 12:07:36;;;;;;;;;;;;;;;32.93;29.01;100016.41;5073014;28;19924;-69
2023/08/29 12:10:13;;;;;;;;;;;;;;;33.08;28.48;100016.78;5072865;28;19912;-67
2023/08/29 12:12:39;;;;;;;;;;;;;;;33.08;27.38;100008.41;5072801;28;19920;-68
2023/08/29 12:15:06;;;;;;;;;;;;;;;33.23;27.76;100016.03;5073082;28;19912;-68
2023/08/29 12:17:38;;;;;;;;;;;;;;;33.49;28.03;100009.13;5072938;28;19918;-68
2023/08/29 12:20:13;;;;;;;;;;;;;;;33.81;26.86;100006.31;5072382;28;19913;-68
2023/08/29 12:22:39;;;;;;;;;;;;;;;34.04;27.79;100010.00;5073236;28;19999;-68
2023/08/29 12:25:04;;;;;;;;;;;;;;;34.43;27.00;100001.72;5072986;28;20007;-68
2023/08/29 12:27:30;;;;;;;;;;;;;;;34.88;27.18;100005.84;5072739;28;19913;-67
2023/08/29 12:29:55;;;;;;;;;;;;;;;35.12;26.87;100001.06;5071519;28;20253;-68
2023/08/29 12:32:27;;;;;;;;;;;;;;;35.42;27.96;100005.97;5072562;28;20434;-69
2023/08/29 12:34:54;;;;;;;;;;;;;;;35.67;27.22;100000.78;5072893;28;19919;-68
2023/08/29 12:37:20;;;;;;;;;;;;;;;35.70;26.78;100010.44;5072759;28;19912;-68
2023/08/29 12:39:45;;;;;;;;;;;;;;;35.83;25.87;99992.28;5072774;28;19945;-68